sensor_id;sensor_type;location;lat;lon;timestamp;P1;durP1;ratioP1;P2;durP2;ratioP2
52210;SDS011;38179;52.756;6.906;2022-07-01T00:00:08;18.52;;;17.00;;
52210;SDS011;38179;52.756;6.906;2022-07-01T00:02:35;19.10;;;17.60;;
52210;SDS011;38179;52.756;6.906;2022-07-01T00:05:01;18.85;;;17.27;;
52210;SDS011;38179;52.756;6.906;2022-07-01T00:07:27;18.95;;;17.63;;
52210;SDS011;38179;52.756;6.906;2022-07-01T00:09:53;18.92;;;17.42;;
52210;SDS011;38179;52.756;6.906;2022-07-01T00:12:19;19.95;;;18.23;;
52210;SDS011;38179;52.756;6.906;2022-07-01T00:14:45;19.02;;;17.38;;
52210;SDS011;38179;52.756;6.906;2022-07-01T00:17:11;18.95;;;17.55;;
52210;SDS011;38179;52.756;6.906;2022-07-01T00:19:37;19.08;;;17.67;;
52210;SDS011;38179;52.756;6.906;2022-07-01T00:22:03;19.27;;;17.70;;
52210;SDS011;38179;52.756;6.906;2022-07-01T00:24:29;19.65;;;17.85;;
52210;SDS011;38179;52.756;6.906;2022-07-01T00:26:55;18.90;;;17.60;;
52210;SDS011;38179;52.756;6.906;2022-07-01T00:29:21;18.85;;;17.40;;
52210;SDS011;38179;52.756;6.906;2022-07-01T00:31:47;18.88;;;17.48;;
52210;SDS011;38179;52.756;6.906;2022-07-01T00:34:13;19.42;;;18.02;;
52210;SDS011;38179;52.756;6.906;2022-07-01T00:36:39;19.25;;;17.75;;
52210;SDS011;38179;52.756;6.906;2022-07-01T00:39:05;19.83;;;18.33;;
52210;SDS011;38179;52.756;6.906;2022-07-01T00:41:31;19.33;;;17.83;;
52210;SDS011;38179;52.756;6.906;2022-07-01T00:43:57;20.25;;;18.48;;
52210;SDS011;38179;52.756;6.906;2022-07-01T00:46:23;19.33;;;17.92;;
52210;SDS011;38179;52.756;6.906;2022-07-01T00:48:55;19.27;;;17.77;;
52210;SDS011;38179;52.756;6.906;2022-07-01T00:51:23;19.02;;;17.63;;
52210;SDS011;38179;52.756;6.906;2022-07-01T00:53:49;18.45;;;17.05;;
52210;SDS011;38179;52.756;6.906;2022-07-01T00:56:15;18.65;;;17.08;;
52210;SDS011;38179;52.756;6.906;2022-07-01T00:58:42;18.45;;;17.10;;
52210;SDS011;38179;52.756;6.906;2022-07-01T01:01:09;18.65;;;17.33;;
52210;SDS011;38179;52.756;6.906;2022-07-01T01:03:35;19.40;;;17.80;;
52210;SDS011;38179;52.756;6.906;2022-07-01T01:06:02;18.67;;;17.27;;
52210;SDS011;38179;52.756;6.906;2022-07-01T01:08:28;18.20;;;16.77;;
52210;SDS011;38179;52.756;6.906;2022-07-01T01:10:55;18.20;;;16.92;;
52210;SDS011;38179;52.756;6.906;2022-07-01T01:13:21;18.63;;;17.15;;
52210;SDS011;38179;52.756;6.906;2022-07-01T01:15:47;18.85;;;17.45;;
52210;SDS011;38179;52.756;6.906;2022-07-01T01:18:13;18.80;;;17.30;;
52210;SDS011;38179;52.756;6.906;2022-07-01T01:20:39;17.95;;;16.67;;
52210;SDS011;38179;52.756;6.906;2022-07-01T01:23:05;18.27;;;16.98;;
52210;SDS011;38179;52.756;6.906;2022-07-01T01:25:32;18.88;;;17.48;;
52210;SDS011;38179;52.756;6.906;2022-07-01T01:27:59;18.75;;;17.35;;
52210;SDS011;38179;52.756;6.906;2022-07-01T01:30:26;18.30;;;17.00;;
52210;SDS011;38179;52.756;6.906;2022-07-01T01:32:52;19.23;;;17.67;;
52210;SDS011;38179;52.756;6.906;2022-07-01T01:35:18;18.10;;;16.52;;
52210;SDS011;38179;52.756;6.906;2022-07-01T01:37:45;18.08;;;16.77;;
52210;SDS011;38179;52.756;6.906;2022-07-01T01:40:12;17.88;;;16.58;;
52210;SDS011;38179;52.756;6.906;2022-07-01T01:45:07;18.35;;;17.05;;
52210;SDS011;38179;52.756;6.906;2022-07-01T01:47:34;17.92;;;16.63;;
52210;SDS011;38179;52.756;6.906;2022-07-01T01:50:00;18.17;;;16.80;;
52210;SDS011;38179;52.756;6.906;2022-07-01T01:52:26;19.05;;;17.50;;
52210;SDS011;38179;52.756;6.906;2022-07-01T01:54:52;17.98;;;16.67;;
52210;SDS011;38179;52.756;6.906;2022-07-01T01:57:18;17.95;;;16.55;;
52210;SDS011;38179;52.756;6.906;2022-07-01T01:59:43;17.83;;;16.52;;
52210;SDS011;38179;52.756;6.906;2022-07-01T02:02:09;18.33;;;17.02;;
52210;SDS011;38179;52.756;6.906;2022-07-01T02:04:35;18.52;;;17.13;;
52210;SDS011;38179;52.756;6.906;2022-07-01T02:07:01;17.90;;;16.60;;
52210;SDS011;38179;52.756;6.906;2022-07-01T02:09:28;18.55;;;17.25;;
52210;SDS011;38179;52.756;6.906;2022-07-01T02:11:54;18.05;;;16.65;;
52210;SDS011;38179;52.756;6.906;2022-07-01T02:14:20;19.35;;;17.95;;
52210;SDS011;38179;52.756;6.906;2022-07-01T02:16:46;23.65;;;21.85;;
52210;SDS011;38179;52.756;6.906;2022-07-01T02:19:12;27.55;;;25.35;;
52210;SDS011;38179;52.756;6.906;2022-07-01T02:21:38;31.90;;;29.13;;
52210;SDS011;38179;52.756;6.906;2022-07-01T02:24:04;28.02;;;25.75;;
52210;SDS011;38179;52.756;6.906;2022-07-01T02:26:30;32.85;;;30.05;;
52210;SDS011;38179;52.756;6.906;2022-07-01T02:28:56;30.65;;;28.17;;
52210;SDS011;38179;52.756;6.906;2022-07-01T02:31:22;32.00;;;29.35;;
52210;SDS011;38179;52.756;6.906;2022-07-01T02:33:48;32.00;;;29.10;;
52210;SDS011;38179;52.756;6.906;2022-07-01T02:36:14;35.60;;;32.22;;
52210;SDS011;38179;52.756;6.906;2022-07-01T02:38:40;32.65;;;29.77;;
52210;SDS011;38179;52.756;6.906;2022-07-01T02:41:06;32.92;;;30.00;;
52210;SDS011;38179;52.756;6.906;2022-07-01T02:43:32;34.67;;;31.67;;
52210;SDS011;38179;52.756;6.906;2022-07-01T02:45:58;29.20;;;26.60;;
52210;SDS011;38179;52.756;6.906;2022-07-01T02:48:27;32.28;;;29.40;;
52210;SDS011;38179;52.756;6.906;2022-07-01T02:50:53;31.58;;;28.77;;
52210;SDS011;38179;52.756;6.906;2022-07-01T02:53:19;32.08;;;29.02;;
52210;SDS011;38179;52.756;6.906;2022-07-01T02:55:45;30.95;;;28.25;;
52210;SDS011;38179;52.756;6.906;2022-07-01T02:58:11;32.45;;;29.65;;
52210;SDS011;38179;52.756;6.906;2022-07-01T03:00:37;31.88;;;29.17;;
52210;SDS011;38179;52.756;6.906;2022-07-01T03:03:03;29.77;;;27.08;;
52210;SDS011;38179;52.756;6.906;2022-07-01T03:05:29;29.33;;;26.83;;
52210;SDS011;38179;52.756;6.906;2022-07-01T03:07:58;29.75;;;27.15;;
52210;SDS011;38179;52.756;6.906;2022-07-01T03:10:24;29.88;;;27.02;;
52210;SDS011;38179;52.756;6.906;2022-07-01T03:12:50;28.85;;;26.52;;
52210;SDS011;38179;52.756;6.906;2022-07-01T03:15:16;29.30;;;26.77;;
52210;SDS011;38179;52.756;6.906;2022-07-01T03:17:43;28.98;;;26.38;;
52210;SDS011;38179;52.756;6.906;2022-07-01T03:20:11;28.45;;;25.95;;
52210;SDS011;38179;52.756;6.906;2022-07-01T03:22:39;27.13;;;24.85;;
52210;SDS011;38179;52.756;6.906;2022-07-01T03:25:06;27.73;;;25.17;;
52210;SDS011;38179;52.756;6.906;2022-07-01T03:27:32;27.00;;;24.77;;
52210;SDS011;38179;52.756;6.906;2022-07-01T03:29:59;26.65;;;24.52;;
52210;SDS011;38179;52.756;6.906;2022-07-01T03:32:25;27.98;;;25.45;;
52210;SDS011;38179;52.756;6.906;2022-07-01T03:34:52;27.77;;;25.38;;
52210;SDS011;38179;52.756;6.906;2022-07-01T03:37:19;27.40;;;25.00;;
52210;SDS011;38179;52.756;6.906;2022-07-01T03:39:46;27.33;;;24.95;;
52210;SDS011;38179;52.756;6.906;2022-07-01T03:42:13;29.25;;;26.80;;
52210;SDS011;38179;52.756;6.906;2022-07-01T03:44:39;27.60;;;24.92;;
52210;SDS011;38179;52.756;6.906;2022-07-01T03:47:05;27.80;;;25.10;;
52210;SDS011;38179;52.756;6.906;2022-07-01T03:49:32;29.33;;;26.63;;
52210;SDS011;38179;52.756;6.906;2022-07-01T03:51:59;29.40;;;26.65;;
52210;SDS011;38179;52.756;6.906;2022-07-01T03:54:25;31.33;;;28.63;;
52210;SDS011;38179;52.756;6.906;2022-07-01T03:59:34;30.02;;;27.17;;
52210;SDS011;38179;52.756;6.906;2022-07-01T04:02:02;32.58;;;29.38;;
52210;SDS011;38179;52.756;6.906;2022-07-01T04:04:29;31.02;;;28.13;;
52210;SDS011;38179;52.756;6.906;2022-07-01T04:06:55;33.28;;;30.27;;
52210;SDS011;38179;52.756;6.906;2022-07-01T04:09:23;34.03;;;30.75;;
52210;SDS011;38179;52.756;6.906;2022-07-01T04:11:50;34.17;;;31.05;;
52210;SDS011;38179;52.756;6.906;2022-07-01T04:14:17;35.03;;;31.52;;
52210;SDS011;38179;52.756;6.906;2022-07-01T04:16:43;34.92;;;31.63;;
52210;SDS011;38179;52.756;6.906;2022-07-01T04:19:10;33.53;;;30.25;;
52210;SDS011;38179;52.756;6.906;2022-07-01T04:21:38;36.05;;;32.63;;
52210;SDS011;38179;52.756;6.906;2022-07-01T04:24:23;36.42;;;32.92;;
52210;SDS011;38179;52.756;6.906;2022-07-01T04:26:50;37.45;;;33.40;;
52210;SDS011;38179;52.756;6.906;2022-07-01T04:29:16;37.70;;;34.10;;
52210;SDS011;38179;52.756;6.906;2022-07-01T04:31:43;38.80;;;34.97;;
52210;SDS011;38179;52.756;6.906;2022-07-01T04:34:09;36.72;;;33.13;;
52210;SDS011;38179;52.756;6.906;2022-07-01T04:36:36;37.95;;;34.17;;
52210;SDS011;38179;52.756;6.906;2022-07-01T04:39:03;38.30;;;34.50;;
52210;SDS011;38179;52.756;6.906;2022-07-01T04:41:30;38.15;;;34.22;;
52210;SDS011;38179;52.756;6.906;2022-07-01T04:44:15;38.75;;;34.80;;
52210;SDS011;38179;52.756;6.906;2022-07-01T04:46:41;35.97;;;32.35;;
52210;SDS011;38179;52.756;6.906;2022-07-01T04:49:08;37.10;;;33.42;;
52210;SDS011;38179;52.756;6.906;2022-07-01T04:51:34;39.25;;;35.35;;
52210;SDS011;38179;52.756;6.906;2022-07-01T04:54:01;38.45;;;34.78;;
52210;SDS011;38179;52.756;6.906;2022-07-01T04:56:28;38.03;;;34.25;;
52210;SDS011;38179;52.756;6.906;2022-07-01T04:58:54;39.78;;;35.72;;
52210;SDS011;38179;52.756;6.906;2022-07-01T05:01:21;40.28;;;36.40;;
52210;SDS011;38179;52.756;6.906;2022-07-01T05:03:47;37.25;;;33.65;;
52210;SDS011;38179;52.756;6.906;2022-07-01T05:06:13;39.10;;;35.17;;
52210;SDS011;38179;52.756;6.906;2022-07-01T05:08:39;39.35;;;35.35;;
52210;SDS011;38179;52.756;6.906;2022-07-01T05:11:06;39.78;;;35.80;;
52210;SDS011;38179;52.756;6.906;2022-07-01T05:13:32;40.88;;;36.92;;
52210;SDS011;38179;52.756;6.906;2022-07-01T05:16:01;34.90;;;31.70;;
52210;SDS011;38179;52.756;6.906;2022-07-01T05:18:27;39.20;;;35.40;;
52210;SDS011;38179;52.756;6.906;2022-07-01T05:21:19;39.42;;;35.53;;
52210;SDS011;38179;52.756;6.906;2022-07-01T05:24:04;40.13;;;36.22;;
52210;SDS011;38179;52.756;6.906;2022-07-01T05:26:30;38.28;;;34.58;;
52210;SDS011;38179;52.756;6.906;2022-07-01T05:28:56;40.85;;;36.90;;
52210;SDS011;38179;52.756;6.906;2022-07-01T05:31:22;39.13;;;35.17;;
52210;SDS011;38179;52.756;6.906;2022-07-01T05:33:48;40.67;;;36.45;;
52210;SDS011;38179;52.756;6.906;2022-07-01T05:36:14;42.05;;;37.75;;
52210;SDS011;38179;52.756;6.906;2022-07-01T05:38:41;39.80;;;35.85;;
52210;SDS011;38179;52.756;6.906;2022-07-01T05:41:06;41.85;;;37.78;;
52210;SDS011;38179;52.756;6.906;2022-07-01T05:43:33;39.63;;;35.72;;
52210;SDS011;38179;52.756;6.906;2022-07-01T05:45:59;41.50;;;37.50;;
52210;SDS011;38179;52.756;6.906;2022-07-01T05:48:26;41.50;;;37.63;;
52210;SDS011;38179;52.756;6.906;2022-07-01T05:50:52;42.20;;;38.10;;
52210;SDS011;38179;52.756;6.906;2022-07-01T05:53:18;41.35;;;36.88;;
52210;SDS011;38179;52.756;6.906;2022-07-01T05:55:45;41.10;;;37.20;;
52210;SDS011;38179;52.756;6.906;2022-07-01T05:58:11;39.53;;;35.42;;
52210;SDS011;38179;52.756;6.906;2022-07-01T06:00:38;38.80;;;35.00;;
52210;SDS011;38179;52.756;6.906;2022-07-01T06:03:11;40.80;;;36.80;;
52210;SDS011;38179;52.756;6.906;2022-07-01T06:05:38;41.50;;;37.42;;
52210;SDS011;38179;52.756;6.906;2022-07-01T06:08:04;40.58;;;36.35;;
52210;SDS011;38179;52.756;6.906;2022-07-01T06:10:31;40.58;;;36.38;;
52210;SDS011;38179;52.756;6.906;2022-07-01T06:12:57;42.08;;;38.10;;
52210;SDS011;38179;52.756;6.906;2022-07-01T06:15:23;41.85;;;37.47;;
52210;SDS011;38179;52.756;6.906;2022-07-01T06:17:50;41.05;;;36.90;;
52210;SDS011;38179;52.756;6.906;2022-07-01T06:20:17;40.85;;;36.72;;
52210;SDS011;38179;52.756;6.906;2022-07-01T06:22:43;40.17;;;36.17;;
52210;SDS011;38179;52.756;6.906;2022-07-01T06:25:09;39.88;;;36.17;;
52210;SDS011;38179;52.756;6.906;2022-07-01T06:27:42;38.92;;;35.13;;
52210;SDS011;38179;52.756;6.906;2022-07-01T06:30:09;41.53;;;37.28;;
52210;SDS011;38179;52.756;6.906;2022-07-01T06:32:35;39.38;;;35.58;;
52210;SDS011;38179;52.756;6.906;2022-07-01T06:35:02;39.67;;;35.80;;
52210;SDS011;38179;52.756;6.906;2022-07-01T06:37:28;39.85;;;36.05;;
52210;SDS011;38179;52.756;6.906;2022-07-01T06:39:58;39.95;;;35.95;;
52210;SDS011;38179;52.756;6.906;2022-07-01T06:42:24;41.38;;;37.40;;
52210;SDS011;38179;52.756;6.906;2022-07-01T06:44:49;41.67;;;37.65;;
52210;SDS011;38179;52.756;6.906;2022-07-01T06:47:15;40.22;;;36.47;;
52210;SDS011;38179;52.756;6.906;2022-07-01T06:49:41;40.17;;;36.28;;
52210;SDS011;38179;52.756;6.906;2022-07-01T06:52:07;42.05;;;38.05;;
52210;SDS011;38179;52.756;6.906;2022-07-01T06:54:33;41.83;;;37.63;;
52210;SDS011;38179;52.756;6.906;2022-07-01T06:59:29;41.13;;;37.15;;
52210;SDS011;38179;52.756;6.906;2022-07-01T07:01:55;42.65;;;37.95;;
52210;SDS011;38179;52.756;6.906;2022-07-01T07:04:21;42.20;;;38.13;;
52210;SDS011;38179;52.756;6.906;2022-07-01T07:06:47;41.05;;;37.05;;
52210;SDS011;38179;52.756;6.906;2022-07-01T07:09:12;40.72;;;36.65;;
52210;SDS011;38179;52.756;6.906;2022-07-01T07:11:38;40.70;;;36.42;;
52210;SDS011;38179;52.756;6.906;2022-07-01T07:14:04;39.30;;;35.50;;
52210;SDS011;38179;52.756;6.906;2022-07-01T07:16:30;40.03;;;36.13;;
52210;SDS011;38179;52.756;6.906;2022-07-01T07:18:56;39.53;;;35.42;;
52210;SDS011;38179;52.756;6.906;2022-07-01T07:21:22;40.60;;;36.47;;
52210;SDS011;38179;52.756;6.906;2022-07-01T07:23:48;40.50;;;36.67;;
52210;SDS011;38179;52.756;6.906;2022-07-01T07:26:14;40.58;;;36.88;;
52210;SDS011;38179;52.756;6.906;2022-07-01T07:28:40;39.95;;;36.13;;
52210;SDS011;38179;52.756;6.906;2022-07-01T07:31:06;40.72;;;36.75;;
52210;SDS011;38179;52.756;6.906;2022-07-01T07:33:31;39.50;;;35.63;;
52210;SDS011;38179;52.756;6.906;2022-07-01T07:35:57;42.13;;;37.83;;
52210;SDS011;38179;52.756;6.906;2022-07-01T07:38:23;40.53;;;36.45;;
52210;SDS011;38179;52.756;6.906;2022-07-01T07:40:49;39.28;;;35.15;;
52210;SDS011;38179;52.756;6.906;2022-07-01T07:43:15;38.67;;;34.92;;
52210;SDS011;38179;52.756;6.906;2022-07-01T07:45:41;40.67;;;36.42;;
52210;SDS011;38179;52.756;6.906;2022-07-01T07:48:07;39.42;;;35.42;;
52210;SDS011;38179;52.756;6.906;2022-07-01T07:50:34;39.13;;;35.33;;
52210;SDS011;38179;52.756;6.906;2022-07-01T07:53:00;40.63;;;36.70;;
52210;SDS011;38179;52.756;6.906;2022-07-01T07:55:26;40.22;;;36.38;;
52210;SDS011;38179;52.756;6.906;2022-07-01T07:57:53;38.53;;;34.97;;
52210;SDS011;38179;52.756;6.906;2022-07-01T08:00:19;40.40;;;35.85;;
52210;SDS011;38179;52.756;6.906;2022-07-01T08:02:45;39.55;;;35.85;;
52210;SDS011;38179;52.756;6.906;2022-07-01T08:05:11;40.22;;;36.42;;
52210;SDS011;38179;52.756;6.906;2022-07-01T08:07:37;38.53;;;34.47;;
52210;SDS011;38179;52.756;6.906;2022-07-01T08:10:05;38.63;;;34.83;;
52210;SDS011;38179;52.756;6.906;2022-07-01T08:12:32;39.20;;;35.22;;
52210;SDS011;38179;52.756;6.906;2022-07-01T08:14:59;37.90;;;34.10;;
52210;SDS011;38179;52.756;6.906;2022-07-01T08:17:26;38.35;;;34.42;;
52210;SDS011;38179;52.756;6.906;2022-07-01T08:19:52;37.17;;;33.65;;
52210;SDS011;38179;52.756;6.906;2022-07-01T08:22:18;37.15;;;33.42;;
52210;SDS011;38179;52.756;6.906;2022-07-01T08:24:44;38.22;;;34.33;;
52210;SDS011;38179;52.756;6.906;2022-07-01T08:27:10;38.45;;;34.65;;
52210;SDS011;38179;52.756;6.906;2022-07-01T08:29:38;37.72;;;34.13;;
52210;SDS011;38179;52.756;6.906;2022-07-01T08:32:04;36.33;;;32.78;;
52210;SDS011;38179;52.756;6.906;2022-07-01T08:34:30;36.97;;;33.53;;
52210;SDS011;38179;52.756;6.906;2022-07-01T08:36:56;37.42;;;33.75;;
52210;SDS011;38179;52.756;6.906;2022-07-01T08:39:22;35.80;;;32.20;;
52210;SDS011;38179;52.756;6.906;2022-07-01T08:41:48;35.42;;;32.00;;
52210;SDS011;38179;52.756;6.906;2022-07-01T08:44:14;33.78;;;30.55;;
52210;SDS011;38179;52.756;6.906;2022-07-01T08:46:40;32.13;;;29.33;;
52210;SDS011;38179;52.756;6.906;2022-07-01T08:49:06;31.90;;;28.65;;
52210;SDS011;38179;52.756;6.906;2022-07-01T08:51:32;31.23;;;28.15;;
52210;SDS011;38179;52.756;6.906;2022-07-01T08:53:58;30.10;;;27.40;;
52210;SDS011;38179;52.756;6.906;2022-07-01T08:56:24;30.25;;;27.45;;
52210;SDS011;38179;52.756;6.906;2022-07-01T08:59:09;29.45;;;26.92;;
52210;SDS011;38179;52.756;6.906;2022-07-01T09:01:36;29.70;;;27.00;;
52210;SDS011;38179;52.756;6.906;2022-07-01T09:04:16;29.25;;;26.55;;
52210;SDS011;38179;52.756;6.906;2022-07-01T09:06:43;29.05;;;26.60;;
52210;SDS011;38179;52.756;6.906;2022-07-01T09:09:10;29.17;;;26.48;;
52210;SDS011;38179;52.756;6.906;2022-07-01T09:11:47;28.92;;;26.33;;
52210;SDS011;38179;52.756;6.906;2022-07-01T09:14:25;29.33;;;26.38;;
52210;SDS011;38179;52.756;6.906;2022-07-01T09:16:56;28.60;;;26.10;;
52210;SDS011;38179;52.756;6.906;2022-07-01T09:19:26;29.08;;;26.25;;
52210;SDS011;38179;52.756;6.906;2022-07-01T09:21:54;27.50;;;25.00;;
52210;SDS011;38179;52.756;6.906;2022-07-01T09:24:23;27.70;;;25.13;;
52210;SDS011;38179;52.756;6.906;2022-07-01T09:26:56;26.52;;;24.27;;
52210;SDS011;38179;52.756;6.906;2022-07-01T09:29:34;28.17;;;25.48;;
52210;SDS011;38179;52.756;6.906;2022-07-01T09:32:07;26.58;;;24.05;;
52210;SDS011;38179;52.756;6.906;2022-07-01T09:34:47;26.50;;;24.10;;
52210;SDS011;38179;52.756;6.906;2022-07-01T09:37:18;27.80;;;25.30;;
52210;SDS011;38179;52.756;6.906;2022-07-01T09:39:51;27.23;;;24.58;;
52210;SDS011;38179;52.756;6.906;2022-07-01T09:42:19;27.08;;;24.65;;
52210;SDS011;38179;52.756;6.906;2022-07-01T09:44:59;27.00;;;24.55;;
52210;SDS011;38179;52.756;6.906;2022-07-01T09:47:35;26.88;;;24.25;;
52210;SDS011;38179;52.756;6.906;2022-07-01T09:50:04;26.48;;;24.08;;
52210;SDS011;38179;52.756;6.906;2022-07-01T09:52:31;25.67;;;23.40;;
52210;SDS011;38179;52.756;6.906;2022-07-01T09:54:58;26.60;;;24.00;;
52210;SDS011;38179;52.756;6.906;2022-07-01T09:57:24;27.20;;;24.63;;
52210;SDS011;38179;52.756;6.906;2022-07-01T09:59:50;25.23;;;22.85;;
52210;SDS011;38179;52.756;6.906;2022-07-01T10:02:20;25.42;;;22.92;;
52210;SDS011;38179;52.756;6.906;2022-07-01T10:04:51;24.58;;;22.23;;
52210;SDS011;38179;52.756;6.906;2022-07-01T10:12:51;23.40;;;21.20;;
52210;SDS011;38179;52.756;6.906;2022-07-01T10:15:19;24.42;;;22.08;;
52210;SDS011;38179;52.756;6.906;2022-07-01T10:17:47;24.55;;;22.55;;
52210;SDS011;38179;52.756;6.906;2022-07-01T10:20:16;24.63;;;22.45;;
52210;SDS011;38179;52.756;6.906;2022-07-01T10:22:44;24.85;;;22.67;;
52210;SDS011;38179;52.756;6.906;2022-07-01T10:28:26;25.55;;;23.20;;
52210;SDS011;38179;52.756;6.906;2022-07-01T10:30:55;24.77;;;22.63;;
52210;SDS011;38179;52.756;6.906;2022-07-01T10:33:32;25.55;;;23.17;;
52210;SDS011;38179;52.756;6.906;2022-07-01T10:36:10;25.38;;;22.95;;
52210;SDS011;38179;52.756;6.906;2022-07-01T10:41:29;23.73;;;21.52;;
52210;SDS011;38179;52.756;6.906;2022-07-01T10:44:01;22.75;;;20.85;;
52210;SDS011;38179;52.756;6.906;2022-07-01T10:52:05;24.70;;;22.25;;
52210;SDS011;38179;52.756;6.906;2022-07-01T10:59:41;23.00;;;21.10;;
52210;SDS011;38179;52.756;6.906;2022-07-01T11:04:44;22.25;;;20.27;;
52210;SDS011;38179;52.756;6.906;2022-07-01T11:07:10;22.27;;;20.05;;
52210;SDS011;38179;52.756;6.906;2022-07-01T11:09:37;22.30;;;20.40;;
52210;SDS011;38179;52.756;6.906;2022-07-01T11:12:05;22.25;;;20.17;;
52210;SDS011;38179;52.756;6.906;2022-07-01T11:14:34;22.33;;;20.42;;
52210;SDS011;38179;52.756;6.906;2022-07-01T11:17:02;22.27;;;20.17;;
52210;SDS011;38179;52.756;6.906;2022-07-01T11:19:29;22.40;;;20.67;;
52210;SDS011;38179;52.756;6.906;2022-07-01T11:21:55;23.05;;;20.98;;
52210;SDS011;38179;52.756;6.906;2022-07-01T11:24:21;21.60;;;19.90;;
52210;SDS011;38179;52.756;6.906;2022-07-01T11:26:48;21.90;;;19.67;;
52210;SDS011;38179;52.756;6.906;2022-07-01T11:29:14;22.13;;;20.20;;
52210;SDS011;38179;52.756;6.906;2022-07-01T11:31:49;22.75;;;20.85;;
52210;SDS011;38179;52.756;6.906;2022-07-01T11:34:16;22.70;;;20.83;;
52210;SDS011;38179;52.756;6.906;2022-07-01T11:36:43;23.05;;;21.05;;
52210;SDS011;38179;52.756;6.906;2022-07-01T11:39:28;22.88;;;21.08;;
52210;SDS011;38179;52.756;6.906;2022-07-01T11:42:05;23.05;;;20.95;;
52210;SDS011;38179;52.756;6.906;2022-07-01T11:44:33;22.17;;;20.45;;
52210;SDS011;38179;52.756;6.906;2022-07-01T11:47:09;21.83;;;20.00;;
52210;SDS011;38179;52.756;6.906;2022-07-01T11:49:47;22.33;;;20.52;;
52210;SDS011;38179;52.756;6.906;2022-07-01T11:52:14;22.73;;;20.77;;
52210;SDS011;38179;52.756;6.906;2022-07-01T11:54:46;22.42;;;20.42;;
52210;SDS011;38179;52.756;6.906;2022-07-01T11:57:17;22.70;;;20.67;;
52210;SDS011;38179;52.756;6.906;2022-07-01T11:59:45;22.58;;;20.67;;
52210;SDS011;38179;52.756;6.906;2022-07-01T12:02:13;22.85;;;20.92;;
52210;SDS011;38179;52.756;6.906;2022-07-01T12:04:40;22.52;;;20.63;;
52210;SDS011;38179;52.756;6.906;2022-07-01T12:07:07;21.98;;;20.17;;
52210;SDS011;38179;52.756;6.906;2022-07-01T12:09:36;22.80;;;20.83;;
52210;SDS011;38179;52.756;6.906;2022-07-01T12:12:02;22.35;;;20.52;;
52210;SDS011;38179;52.756;6.906;2022-07-01T12:14:30;21.48;;;19.73;;
52210;SDS011;38179;52.756;6.906;2022-07-01T12:16:59;22.02;;;20.13;;
52210;SDS011;38179;52.756;6.906;2022-07-01T12:22:19;22.07;;;20.17;;
52210;SDS011;38179;52.756;6.906;2022-07-01T12:25:08;22.02;;;20.13;;
52210;SDS011;38179;52.756;6.906;2022-07-01T12:27:37;21.92;;;19.77;;
52210;SDS011;38179;52.756;6.906;2022-07-01T12:30:04;21.08;;;19.30;;
52210;SDS011;38179;52.756;6.906;2022-07-01T12:32:34;21.88;;;19.95;;
52210;SDS011;38179;52.756;6.906;2022-07-01T12:35:02;21.40;;;19.50;;
52210;SDS011;38179;52.756;6.906;2022-07-01T12:37:36;20.67;;;19.08;;
52210;SDS011;38179;52.756;6.906;2022-07-01T12:40:36;20.38;;;18.77;;
52210;SDS011;38179;52.756;6.906;2022-07-01T12:42:55;20.95;;;19.25;;
52210;SDS011;38179;52.756;6.906;2022-07-01T12:45:25;20.25;;;18.55;;
52210;SDS011;38179;52.756;6.906;2022-07-01T12:47:55;20.42;;;18.85;;
52210;SDS011;38179;52.756;6.906;2022-07-01T12:50:22;20.55;;;18.85;;
52210;SDS011;38179;52.756;6.906;2022-07-01T12:53:00;21.38;;;19.55;;
52210;SDS011;38179;52.756;6.906;2022-07-01T12:58:01;21.55;;;19.63;;
52210;SDS011;38179;52.756;6.906;2022-07-01T13:00:29;21.00;;;19.25;;
52210;SDS011;38179;52.756;6.906;2022-07-01T13:02:59;20.45;;;18.75;;
52210;SDS011;38179;52.756;6.906;2022-07-01T13:05:27;20.95;;;19.25;;
52210;SDS011;38179;52.756;6.906;2022-07-01T13:07:55;20.60;;;19.00;;
52210;SDS011;38179;52.756;6.906;2022-07-01T13:10:21;21.02;;;19.33;;
52210;SDS011;38179;52.756;6.906;2022-07-01T13:12:47;20.42;;;18.67;;
52210;SDS011;38179;52.756;6.906;2022-07-01T13:15:14;20.92;;;19.13;;
52210;SDS011;38179;52.756;6.906;2022-07-01T13:17:42;20.58;;;18.85;;
52210;SDS011;38179;52.756;6.906;2022-07-01T13:20:09;20.27;;;18.52;;
52210;SDS011;38179;52.756;6.906;2022-07-01T13:22:36;21.13;;;19.20;;
52210;SDS011;38179;52.756;6.906;2022-07-01T13:25:02;21.02;;;19.27;;
52210;SDS011;38179;52.756;6.906;2022-07-01T13:27:29;21.50;;;19.52;;
52210;SDS011;38179;52.756;6.906;2022-07-01T13:29:55;21.20;;;19.10;;
52210;SDS011;38179;52.756;6.906;2022-07-01T13:32:24;21.20;;;19.50;;
52210;SDS011;38179;52.756;6.906;2022-07-01T13:34:51;21.52;;;19.52;;
52210;SDS011;38179;52.756;6.906;2022-07-01T13:37:17;21.05;;;19.30;;
52210;SDS011;38179;52.756;6.906;2022-07-01T13:39:42;21.27;;;19.45;;
52210;SDS011;38179;52.756;6.906;2022-07-01T13:42:09;21.02;;;19.15;;
52210;SDS011;38179;52.756;6.906;2022-07-01T13:44:34;20.88;;;19.23;;
52210;SDS011;38179;52.756;6.906;2022-07-01T13:47:00;21.15;;;19.45;;
52210;SDS011;38179;52.756;6.906;2022-07-01T13:49:29;20.33;;;18.65;;
52210;SDS011;38179;52.756;6.906;2022-07-01T13:51:56;20.23;;;18.63;;
52210;SDS011;38179;52.756;6.906;2022-07-01T13:54:22;20.85;;;19.25;;
52210;SDS011;38179;52.756;6.906;2022-07-01T13:56:48;21.02;;;19.33;;
52210;SDS011;38179;52.756;6.906;2022-07-01T13:59:13;20.58;;;18.77;;
52210;SDS011;38179;52.756;6.906;2022-07-01T14:01:40;21.15;;;19.45;;
52210;SDS011;38179;52.756;6.906;2022-07-01T14:04:06;20.80;;;19.10;;
52210;SDS011;38179;52.756;6.906;2022-07-01T14:06:32;21.30;;;19.35;;
52210;SDS011;38179;52.756;6.906;2022-07-01T14:08:58;21.25;;;19.40;;
52210;SDS011;38179;52.756;6.906;2022-07-01T14:11:23;21.10;;;19.05;;
52210;SDS011;38179;52.756;6.906;2022-07-01T14:13:49;20.88;;;19.25;;
52210;SDS011;38179;52.756;6.906;2022-07-01T14:16:15;21.33;;;19.63;;
52210;SDS011;38179;52.756;6.906;2022-07-01T14:18:41;21.58;;;19.60;;
52210;SDS011;38179;52.756;6.906;2022-07-01T14:21:07;21.00;;;19.17;;
52210;SDS011;38179;52.756;6.906;2022-07-01T14:23:33;21.42;;;19.75;;
52210;SDS011;38179;52.756;6.906;2022-07-01T14:25:59;21.65;;;19.55;;
52210;SDS011;38179;52.756;6.906;2022-07-01T14:28:25;20.75;;;19.05;;
52210;SDS011;38179;52.756;6.906;2022-07-01T14:30:51;20.75;;;18.95;;
52210;SDS011;38179;52.756;6.906;2022-07-01T14:33:20;20.42;;;18.80;;
52210;SDS011;38179;52.756;6.906;2022-07-01T14:35:47;20.92;;;19.25;;
52210;SDS011;38179;52.756;6.906;2022-07-01T14:38:15;20.58;;;18.88;;
52210;SDS011;38179;52.756;6.906;2022-07-01T14:40:41;21.23;;;19.45;;
52210;SDS011;38179;52.756;6.906;2022-07-01T14:43:07;20.98;;;19.38;;
52210;SDS011;38179;52.756;6.906;2022-07-01T14:45:33;20.55;;;18.73;;
52210;SDS011;38179;52.756;6.906;2022-07-01T14:47:59;21.25;;;19.30;;
52210;SDS011;38179;52.756;6.906;2022-07-01T14:50:26;20.83;;;19.23;;
52210;SDS011;38179;52.756;6.906;2022-07-01T14:52:51;20.40;;;18.90;;
52210;SDS011;38179;52.756;6.906;2022-07-01T14:55:17;20.55;;;18.85;;
52210;SDS011;38179;52.756;6.906;2022-07-01T14:57:43;20.60;;;18.88;;
52210;SDS011;38179;52.756;6.906;2022-07-01T15:00:09;20.75;;;19.05;;